sensor_id;sensor_type;location;lat;lon;timestamp;P1;durP1;ratioP1;P2;durP2;ratioP2
22579;SDS011;11456;47.030;15.396;2023-12-07T00:02:25;83.20;;;27.80;;
22579;SDS011;11456;47.030;15.396;2023-12-07T00:04:52;80.10;;;25.75;;
22579;SDS011;11456;47.030;15.396;2023-12-07T00:07:19;73.60;;;25.65;;
22579;SDS011;11456;47.030;15.396;2023-12-07T00:09:46;82.80;;;24.42;;
22579;SDS011;11456;47.030;15.396;2023-12-07T00:12:12;68.78;;;24.75;;
22579;SDS011;11456;47.030;15.396;2023-12-07T00:14:39;89.18;;;25.48;;
22579;SDS011;11456;47.030;15.396;2023-12-07T00:17:05;118.55;;;25.38;;
22579;SDS011;11456;47.030;15.396;2023-12-07T00:19:32;115.50;;;26.20;;
22579;SDS011;11456;47.030;15.396;2023-12-07T00:21:59;145.13;;;24.88;;
22579;SDS011;11456;47.030;15.396;2023-12-07T00:24:26;219.02;;;29.13;;
22579;SDS011;11456;47.030;15.396;2023-12-07T00:26:52;169.50;;;27.88;;
22579;SDS011;11456;47.030;15.396;2023-12-07T00:29:19;210.23;;;28.27;;
22579;SDS011;11456;47.030;15.396;2023-12-07T00:31:46;276.65;;;33.53;;
22579;SDS011;11456;47.030;15.396;2023-12-07T00:34:12;109.60;;;25.58;;
22579;SDS011;11456;47.030;15.396;2023-12-07T00:36:39;175.80;;;25.80;;
22579;SDS011;11456;47.030;15.396;2023-12-07T00:39:07;135.43;;;25.17;;
22579;SDS011;11456;47.030;15.396;2023-12-07T00:41:35;102.05;;;23.42;;
22579;SDS011;11456;47.030;15.396;2023-12-07T00:44:01;219.85;;;27.23;;
22579;SDS011;11456;47.030;15.396;2023-12-07T00:46:28;203.05;;;26.67;;
22579;SDS011;11456;47.030;15.396;2023-12-07T00:48:55;177.05;;;26.13;;
22579;SDS011;11456;47.030;15.396;2023-12-07T00:51:21;187.50;;;28.63;;
22579;SDS011;11456;47.030;15.396;2023-12-07T00:53:48;166.98;;;26.35;;
22579;SDS011;11456;47.030;15.396;2023-12-07T00:56:15;92.45;;;23.20;;
22579;SDS011;11456;47.030;15.396;2023-12-07T00:58:41;145.15;;;25.63;;
22579;SDS011;11456;47.030;15.396;2023-12-07T01:01:08;119.72;;;22.70;;
22579;SDS011;11456;47.030;15.396;2023-12-07T01:03:35;142.65;;;21.88;;
22579;SDS011;11456;47.030;15.396;2023-12-07T01:06:02;123.22;;;21.45;;
22579;SDS011;11456;47.030;15.396;2023-12-07T01:08:29;125.65;;;23.13;;
22579;SDS011;11456;47.030;15.396;2023-12-07T01:10:56;186.75;;;22.67;;
22579;SDS011;11456;47.030;15.396;2023-12-07T01:13:23;145.70;;;23.00;;
22579;SDS011;11456;47.030;15.396;2023-12-07T01:15:50;191.23;;;24.33;;
22579;SDS011;11456;47.030;15.396;2023-12-07T01:18:17;160.98;;;21.23;;
22579;SDS011;11456;47.030;15.396;2023-12-07T01:20:43;182.40;;;21.23;;
22579;SDS011;11456;47.030;15.396;2023-12-07T01:23:10;181.70;;;22.70;;
22579;SDS011;11456;47.030;15.396;2023-12-07T01:25:40;157.35;;;20.27;;
22579;SDS011;11456;47.030;15.396;2023-12-07T01:28:07;142.27;;;20.08;;
22579;SDS011;11456;47.030;15.396;2023-12-07T01:30:34;239.15;;;24.58;;
22579;SDS011;11456;47.030;15.396;2023-12-07T01:33:00;178.98;;;21.67;;
22579;SDS011;11456;47.030;15.396;2023-12-07T01:35:27;101.97;;;18.95;;
22579;SDS011;11456;47.030;15.396;2023-12-07T01:37:55;138.63;;;20.38;;
22579;SDS011;11456;47.030;15.396;2023-12-07T01:40:21;87.60;;;17.80;;
22579;SDS011;11456;47.030;15.396;2023-12-07T01:42:49;107.28;;;20.35;;
22579;SDS011;11456;47.030;15.396;2023-12-07T01:45:19;100.32;;;20.20;;
22579;SDS011;11456;47.030;15.396;2023-12-07T01:47:47;72.80;;;18.85;;
22579;SDS011;11456;47.030;15.396;2023-12-07T01:50:16;63.30;;;22.20;;
22579;SDS011;11456;47.030;15.396;2023-12-07T01:52:51;65.32;;;19.75;;
22579;SDS011;11456;47.030;15.396;2023-12-07T01:55:20;48.40;;;18.13;;
22579;SDS011;11456;47.030;15.396;2023-12-07T01:57:48;72.03;;;18.92;;
22579;SDS011;11456;47.030;15.396;2023-12-07T02:00:15;76.45;;;18.70;;
22579;SDS011;11456;47.030;15.396;2023-12-07T02:02:43;90.95;;;19.05;;
22579;SDS011;11456;47.030;15.396;2023-12-07T02:05:12;86.30;;;20.02;;
22579;SDS011;11456;47.030;15.396;2023-12-07T02:07:40;85.22;;;19.55;;
22579;SDS011;11456;47.030;15.396;2023-12-07T02:10:09;69.00;;;18.98;;
22579;SDS011;11456;47.030;15.396;2023-12-07T02:12:36;104.20;;;20.45;;
22579;SDS011;11456;47.030;15.396;2023-12-07T02:15:03;74.80;;;18.20;;
22579;SDS011;11456;47.030;15.396;2023-12-07T02:17:47;97.97;;;17.98;;
22579;SDS011;11456;47.030;15.396;2023-12-07T02:20:29;67.80;;;14.83;;
22579;SDS011;11456;47.030;15.396;2023-12-07T02:23:03;75.28;;;19.65;;
22579;SDS011;11456;47.030;15.396;2023-12-07T02:25:36;69.97;;;17.60;;
22579;SDS011;11456;47.030;15.396;2023-12-07T02:28:18;49.88;;;16.40;;
22579;SDS011;11456;47.030;15.396;2023-12-07T02:30:45;121.72;;;18.45;;
22579;SDS011;11456;47.030;15.396;2023-12-07T02:33:12;92.18;;;15.88;;
22579;SDS011;11456;47.030;15.396;2023-12-07T02:35:39;74.63;;;17.27;;
22579;SDS011;11456;47.030;15.396;2023-12-07T02:38:07;95.50;;;15.63;;
22579;SDS011;11456;47.030;15.396;2023-12-07T02:40:34;74.97;;;17.27;;
22579;SDS011;11456;47.030;15.396;2023-12-07T02:43:02;96.80;;;16.75;;
22579;SDS011;11456;47.030;15.396;2023-12-07T02:45:30;53.50;;;15.50;;
22579;SDS011;11456;47.030;15.396;2023-12-07T02:47:58;87.07;;;16.20;;
22579;SDS011;11456;47.030;15.396;2023-12-07T02:50:25;127.70;;;18.27;;
22579;SDS011;11456;47.030;15.396;2023-12-07T02:52:52;80.47;;;17.77;;
22579;SDS011;11456;47.030;15.396;2023-12-07T02:55:19;69.38;;;15.45;;
22579;SDS011;11456;47.030;15.396;2023-12-07T02:57:45;93.47;;;14.60;;
22579;SDS011;11456;47.030;15.396;2023-12-07T03:00:12;77.72;;;15.55;;
22579;SDS011;11456;47.030;15.396;2023-12-07T03:02:40;52.42;;;15.10;;
22579;SDS011;11456;47.030;15.396;2023-12-07T03:05:07;111.50;;;17.35;;
22579;SDS011;11456;47.030;15.396;2023-12-07T03:07:34;55.50;;;14.93;;
22579;SDS011;11456;47.030;15.396;2023-12-07T03:10:01;55.58;;;15.35;;
22579;SDS011;11456;47.030;15.396;2023-12-07T03:12:30;69.55;;;13.68;;
22579;SDS011;11456;47.030;15.396;2023-12-07T03:14:56;45.92;;;14.80;;
22579;SDS011;11456;47.030;15.396;2023-12-07T03:17:23;72.32;;;16.27;;
22579;SDS011;11456;47.030;15.396;2023-12-07T03:19:50;44.95;;;13.75;;
22579;SDS011;11456;47.030;15.396;2023-12-07T03:22:17;44.17;;;14.60;;
22579;SDS011;11456;47.030;15.396;2023-12-07T03:24:45;30.00;;;13.52;;
22579;SDS011;11456;47.030;15.396;2023-12-07T03:27:14;19.27;;;12.20;;
22579;SDS011;11456;47.030;15.396;2023-12-07T03:29:41;20.60;;;13.23;;
22579;SDS011;11456;47.030;15.396;2023-12-07T03:32:07;23.73;;;13.15;;
22579;SDS011;11456;47.030;15.396;2023-12-07T03:34:34;22.88;;;13.32;;
22579;SDS011;11456;47.030;15.396;2023-12-07T03:37:01;35.17;;;13.20;;
22579;SDS011;11456;47.030;15.396;2023-12-07T03:39:29;24.60;;;13.55;;
22579;SDS011;11456;47.030;15.396;2023-12-07T03:41:59;30.98;;;13.23;;
22579;SDS011;11456;47.030;15.396;2023-12-07T03:44:26;31.92;;;14.57;;
22579;SDS011;11456;47.030;15.396;2023-12-07T03:46:54;33.65;;;14.38;;
22579;SDS011;11456;47.030;15.396;2023-12-07T03:49:21;32.10;;;13.27;;
22579;SDS011;11456;47.030;15.396;2023-12-07T03:51:48;29.50;;;13.82;;
22579;SDS011;11456;47.030;15.396;2023-12-07T03:54:15;39.28;;;14.70;;
22579;SDS011;11456;47.030;15.396;2023-12-07T03:56:42;66.75;;;14.57;;
22579;SDS011;11456;47.030;15.396;2023-12-07T03:59:08;35.28;;;13.93;;
22579;SDS011;11456;47.030;15.396;2023-12-07T04:01:35;51.40;;;14.40;;
22579;SDS011;11456;47.030;15.396;2023-12-07T04:04:02;80.40;;;15.73;;
22579;SDS011;11456;47.030;15.396;2023-12-07T04:06:29;62.55;;;16.85;;
22579;SDS011;11456;47.030;15.396;2023-12-07T04:08:55;60.00;;;15.27;;
22579;SDS011;11456;47.030;15.396;2023-12-07T04:11:22;80.40;;;16.10;;
22579;SDS011;11456;47.030;15.396;2023-12-07T04:13:49;81.85;;;15.27;;
22579;SDS011;11456;47.030;15.396;2023-12-07T04:16:16;68.88;;;14.73;;
22579;SDS011;11456;47.030;15.396;2023-12-07T04:18:43;49.97;;;14.57;;
22579;SDS011;11456;47.030;15.396;2023-12-07T04:21:10;99.13;;;15.63;;
22579;SDS011;11456;47.030;15.396;2023-12-07T04:23:37;120.28;;;16.38;;
22579;SDS011;11456;47.030;15.396;2023-12-07T04:26:03;143.32;;;16.20;;
22579;SDS011;11456;47.030;15.396;2023-12-07T04:28:30;64.40;;;15.15;;
22579;SDS011;11456;47.030;15.396;2023-12-07T04:30:57;79.00;;;15.90;;
22579;SDS011;11456;47.030;15.396;2023-12-07T04:33:24;67.18;;;14.52;;
22579;SDS011;11456;47.030;15.396;2023-12-07T04:35:51;103.05;;;18.30;;
22579;SDS011;11456;47.030;15.396;2023-12-07T04:38:17;74.15;;;14.95;;
22579;SDS011;11456;47.030;15.396;2023-12-07T04:40:44;105.45;;;16.58;;
22579;SDS011;11456;47.030;15.396;2023-12-07T04:43:11;82.15;;;16.98;;
22579;SDS011;11456;47.030;15.396;2023-12-07T04:45:37;112.95;;;17.05;;
22579;SDS011;11456;47.030;15.396;2023-12-07T04:48:05;144.52;;;17.70;;
22579;SDS011;11456;47.030;15.396;2023-12-07T04:50:32;176.50;;;17.83;;
22579;SDS011;11456;47.030;15.396;2023-12-07T04:52:58;117.53;;;15.90;;
22579;SDS011;11456;47.030;15.396;2023-12-07T04:55:25;61.22;;;15.70;;
22579;SDS011;11456;47.030;15.396;2023-12-07T04:57:53;93.05;;;15.50;;
22579;SDS011;11456;47.030;15.396;2023-12-07T05:00:19;96.50;;;16.15;;
22579;SDS011;11456;47.030;15.396;2023-12-07T05:02:47;132.45;;;17.25;;
22579;SDS011;11456;47.030;15.396;2023-12-07T05:05:14;52.15;;;16.00;;
22579;SDS011;11456;47.030;15.396;2023-12-07T05:07:41;37.63;;;14.95;;
22579;SDS011;11456;47.030;15.396;2023-12-07T05:10:08;49.22;;;17.65;;
22579;SDS011;11456;47.030;15.396;2023-12-07T05:12:36;110.93;;;18.33;;
22579;SDS011;11456;47.030;15.396;2023-12-07T05:15:02;116.93;;;16.48;;
22579;SDS011;11456;47.030;15.396;2023-12-07T05:17:30;193.98;;;19.00;;
22579;SDS011;11456;47.030;15.396;2023-12-07T05:19:57;63.97;;;14.35;;
22579;SDS011;11456;47.030;15.396;2023-12-07T05:22:24;126.75;;;16.42;;
22579;SDS011;11456;47.030;15.396;2023-12-07T05:24:51;130.88;;;16.52;;
22579;SDS011;11456;47.030;15.396;2023-12-07T05:27:18;74.03;;;15.30;;
22579;SDS011;11456;47.030;15.396;2023-12-07T05:29:45;30.35;;;13.65;;
22579;SDS011;11456;47.030;15.396;2023-12-07T05:32:11;89.32;;;15.35;;
22579;SDS011;11456;47.030;15.396;2023-12-07T05:34:38;29.88;;;14.32;;
22579;SDS011;11456;47.030;15.396;2023-12-07T05:37:05;51.88;;;16.88;;
22579;SDS011;11456;47.030;15.396;2023-12-07T05:39:32;33.97;;;15.20;;
22579;SDS011;11456;47.030;15.396;2023-12-07T05:41:59;46.40;;;17.27;;
22579;SDS011;11456;47.030;15.396;2023-12-07T05:44:25;96.85;;;32.65;;
22579;SDS011;11456;47.030;15.396;2023-12-07T05:46:52;70.10;;;17.05;;
22579;SDS011;11456;47.030;15.396;2023-12-07T05:49:18;29.95;;;14.50;;
22579;SDS011;11456;47.030;15.396;2023-12-07T05:51:48;25.70;;;15.18;;
22579;SDS011;11456;47.030;15.396;2023-12-07T05:54:15;32.55;;;17.83;;
22579;SDS011;11456;47.030;15.396;2023-12-07T05:56:42;26.55;;;15.77;;
22579;SDS011;11456;47.030;15.396;2023-12-07T05:59:09;24.85;;;15.32;;
22579;SDS011;11456;47.030;15.396;2023-12-07T06:01:36;22.63;;;13.70;;
22579;SDS011;11456;47.030;15.396;2023-12-07T06:04:03;24.23;;;14.63;;
22579;SDS011;11456;47.030;15.396;2023-12-07T06:06:31;23.95;;;14.18;;
22579;SDS011;11456;47.030;15.396;2023-12-07T06:08:57;22.63;;;12.98;;
22579;SDS011;11456;47.030;15.396;2023-12-07T06:11:24;21.75;;;13.15;;
22579;SDS011;11456;47.030;15.396;2023-12-07T06:13:51;21.92;;;12.95;;
22579;SDS011;11456;47.030;15.396;2023-12-07T06:16:17;22.48;;;13.52;;
22579;SDS011;11456;47.030;15.396;2023-12-07T06:18:45;24.35;;;13.60;;
22579;SDS011;11456;47.030;15.396;2023-12-07T06:21:13;23.73;;;13.68;;
22579;SDS011;11456;47.030;15.396;2023-12-07T06:23:40;24.58;;;14.57;;
22579;SDS011;11456;47.030;15.396;2023-12-07T06:26:08;25.27;;;14.48;;
22579;SDS011;11456;47.030;15.396;2023-12-07T06:28:34;24.88;;;15.48;;
22579;SDS011;11456;47.030;15.396;2023-12-07T06:31:04;22.95;;;14.32;;
22579;SDS011;11456;47.030;15.396;2023-12-07T06:33:33;24.08;;;13.88;;
22579;SDS011;11456;47.030;15.396;2023-12-07T06:36:01;22.65;;;14.05;;
22579;SDS011;11456;47.030;15.396;2023-12-07T06:38:29;23.38;;;13.13;;
22579;SDS011;11456;47.030;15.396;2023-12-07T06:40:56;22.75;;;13.05;;
22579;SDS011;11456;47.030;15.396;2023-12-07T06:43:23;26.13;;;16.08;;
22579;SDS011;11456;47.030;15.396;2023-12-07T06:45:51;22.00;;;14.20;;
22579;SDS011;11456;47.030;15.396;2023-12-07T06:48:18;23.13;;;14.55;;
22579;SDS011;11456;47.030;15.396;2023-12-07T06:50:44;26.95;;;15.90;;
22579;SDS011;11456;47.030;15.396;2023-12-07T06:53:13;26.77;;;15.82;;
22579;SDS011;11456;47.030;15.396;2023-12-07T06:55:40;26.92;;;16.10;;
22579;SDS011;11456;47.030;15.396;2023-12-07T06:58:11;29.13;;;16.90;;
22579;SDS011;11456;47.030;15.396;2023-12-07T07:00:38;28.75;;;15.85;;
22579;SDS011;11456;47.030;15.396;2023-12-07T07:03:04;26.80;;;15.70;;
22579;SDS011;11456;47.030;15.396;2023-12-07T07:05:32;26.08;;;14.90;;
22579;SDS011;11456;47.030;15.396;2023-12-07T07:07:59;29.63;;;16.10;;
22579;SDS011;11456;47.030;15.396;2023-12-07T07:10:26;24.58;;;15.20;;
22579;SDS011;11456;47.030;15.396;2023-12-07T07:12:53;26.33;;;15.70;;
22579;SDS011;11456;47.030;15.396;2023-12-07T07:15:20;33.03;;;17.25;;
22579;SDS011;11456;47.030;15.396;2023-12-07T07:17:47;27.83;;;16.00;;
22579;SDS011;11456;47.030;15.396;2023-12-07T07:20:13;25.02;;;15.07;;
22579;SDS011;11456;47.030;15.396;2023-12-07T07:22:40;22.55;;;14.20;;
22579;SDS011;11456;47.030;15.396;2023-12-07T07:25:07;21.52;;;14.30;;
22579;SDS011;11456;47.030;15.396;2023-12-07T07:27:35;25.77;;;13.68;;
22579;SDS011;11456;47.030;15.396;2023-12-07T07:30:01;21.60;;;13.52;;
22579;SDS011;11456;47.030;15.396;2023-12-07T07:32:30;22.75;;;13.98;;
22579;SDS011;11456;47.030;15.396;2023-12-07T07:34:57;22.52;;;13.75;;
22579;SDS011;11456;47.030;15.396;2023-12-07T07:37:24;21.05;;;13.20;;
22579;SDS011;11456;47.030;15.396;2023-12-07T07:39:52;23.33;;;13.73;;
22579;SDS011;11456;47.030;15.396;2023-12-07T07:42:18;29.67;;;15.48;;
22579;SDS011;11456;47.030;15.396;2023-12-07T07:44:45;40.05;;;19.77;;
22579;SDS011;11456;47.030;15.396;2023-12-07T07:47:12;27.95;;;14.75;;
22579;SDS011;11456;47.030;15.396;2023-12-07T07:49:38;24.05;;;14.00;;
22579;SDS011;11456;47.030;15.396;2023-12-07T07:52:05;24.42;;;13.55;;
22579;SDS011;11456;47.030;15.396;2023-12-07T07:54:32;21.92;;;13.43;;
22579;SDS011;11456;47.030;15.396;2023-12-07T07:56:58;22.58;;;13.13;;
22579;SDS011;11456;47.030;15.396;2023-12-07T07:59:25;22.75;;;13.48;;
22579;SDS011;11456;47.030;15.396;2023-12-07T08:01:52;25.98;;;14.25;;
22579;SDS011;11456;47.030;15.396;2023-12-07T08:04:19;28.15;;;14.27;;
22579;SDS011;11456;47.030;15.396;2023-12-07T08:06:45;31.40;;;17.05;;
22579;SDS011;11456;47.030;15.396;2023-12-07T08:09:12;32.42;;;17.42;;
22579;SDS011;11456;47.030;15.396;2023-12-07T08:11:38;31.23;;;16.27;;
22579;SDS011;11456;47.030;15.396;2023-12-07T08:14:05;34.92;;;17.48;;
22579;SDS011;11456;47.030;15.396;2023-12-07T08:16:32;21.35;;;11.80;;
22579;SDS011;11456;47.030;15.396;2023-12-07T08:18:59;21.92;;;11.95;;
22579;SDS011;11456;47.030;15.396;2023-12-07T08:21:25;19.90;;;11.93;;
22579;SDS011;11456;47.030;15.396;2023-12-07T08:23:56;20.13;;;11.63;;
22579;SDS011;11456;47.030;15.396;2023-12-07T08:26:23;19.15;;;11.35;;
22579;SDS011;11456;47.030;15.396;2023-12-07T08:28:49;19.65;;;11.60;;
22579;SDS011;11456;47.030;15.396;2023-12-07T08:31:20;17.60;;;9.27;;
22579;SDS011;11456;47.030;15.396;2023-12-07T08:33:52;18.02;;;10.98;;
22579;SDS011;11456;47.030;15.396;2023-12-07T08:36:19;17.65;;;10.73;;
22579;SDS011;11456;47.030;15.396;2023-12-07T08:38:46;25.30;;;14.23;;
22579;SDS011;11456;47.030;15.396;2023-12-07T08:41:13;20.17;;;11.93;;
22579;SDS011;11456;47.030;15.396;2023-12-07T08:43:40;15.65;;;10.23;;
22579;SDS011;11456;47.030;15.396;2023-12-07T08:46:07;16.40;;;10.23;;
22579;SDS011;11456;47.030;15.396;2023-12-07T08:48:35;15.63;;;10.18;;
22579;SDS011;11456;47.030;15.396;2023-12-07T08:51:07;15.38;;;10.32;;
22579;SDS011;11456;47.030;15.396;2023-12-07T08:53:35;15.75;;;10.35;;
22579;SDS011;11456;47.030;15.396;2023-12-07T08:56:02;16.88;;;10.20;;
22579;SDS011;11456;47.030;15.396;2023-12-07T08:58:29;15.80;;;8.68;;
22579;SDS011;11456;47.030;15.396;2023-12-07T09:00:55;12.23;;;8.75;;
22579;SDS011;11456;47.030;15.396;2023-12-07T09:03:22;12.27;;;8.63;;
22579;SDS011;11456;47.030;15.396;2023-12-07T09:05:54;11.13;;;8.07;;
22579;SDS011;11456;47.030;15.396;2023-12-07T09:08:21;8.82;;;6.10;;
22579;SDS011;11456;47.030;15.396;2023-12-07T09:10:47;11.13;;;6.72;;
22579;SDS011;11456;47.030;15.396;2023-12-07T09:13:17;13.60;;;7.50;;
22579;SDS011;11456;47.030;15.396;2023-12-07T09:15:44;21.85;;;11.65;;
22579;SDS011;11456;47.030;15.396;2023-12-07T09:18:11;20.75;;;9.95;;
22579;SDS011;11456;47.030;15.396;2023-12-07T09:20:41;11.30;;;6.50;;
22579;SDS011;11456;47.030;15.396;2023-12-07T09:23:17;10.82;;;7.15;;
22579;SDS011;11456;47.030;15.396;2023-12-07T09:25:43;15.75;;;8.10;;
22579;SDS011;11456;47.030;15.396;2023-12-07T09:28:10;8.55;;;5.55;;
22579;SDS011;11456;47.030;15.396;2023-12-07T09:30:38;10.63;;;6.45;;
22579;SDS011;11456;47.030;15.396;2023-12-07T09:33:04;10.55;;;5.60;;
22579;SDS011;11456;47.030;15.396;2023-12-07T09:35:31;10.70;;;6.22;;
22579;SDS011;11456;47.030;15.396;2023-12-07T09:38:00;12.43;;;7.57;;
22579;SDS011;11456;47.030;15.396;2023-12-07T09:40:27;9.20;;;5.75;;
22579;SDS011;11456;47.030;15.396;2023-12-07T09:42:55;11.23;;;6.88;;
22579;SDS011;11456;47.030;15.396;2023-12-07T09:45:21;8.45;;;5.07;;
22579;SDS011;11456;47.030;15.396;2023-12-07T09:47:51;9.00;;;5.45;;
22579;SDS011;11456;47.030;15.396;2023-12-07T09:50:20;6.80;;;4.32;;
22579;SDS011;11456;47.030;15.396;2023-12-07T09:52:48;9.30;;;6.05;;
22579;SDS011;11456;47.030;15.396;2023-12-07T09:55:29;10.93;;;6.07;;
22579;SDS011;11456;47.030;15.396;2023-12-07T09:57:57;11.95;;;6.55;;
22579;SDS011;11456;47.030;15.396;2023-12-07T10:00:24;8.52;;;6.03;;
22579;SDS011;11456;47.030;15.396;2023-12-07T10:02:52;7.25;;;4.57;;
22579;SDS011;11456;47.030;15.396;2023-12-07T10:05:20;7.63;;;5.03;;
22579;SDS011;11456;47.030;15.396;2023-12-07T10:07:48;9.98;;;5.65;;
22579;SDS011;11456;47.030;15.396;2023-12-07T10:10:16;15.75;;;5.70;;
22579;SDS011;11456;47.030;15.396;2023-12-07T10:12:54;7.88;;;4.90;;
22579;SDS011;11456;47.030;15.396;2023-12-07T10:15:24;6.68;;;4.45;;
22579;SDS011;11456;47.030;15.396;2023-12-07T10:17:52;9.23;;;4.82;;
22579;SDS011;11456;47.030;15.396;2023-12-07T10:20:24;9.38;;;4.95;;
22579;SDS011;11456;47.030;15.396;2023-12-07T10:23:02;10.15;;;5.03;;
22579;SDS011;11456;47.030;15.396;2023-12-07T10:25:35;8.63;;;4.88;;
22579;SDS011;11456;47.030;15.396;2023-12-07T10:28:03;6.85;;;4.80;;
22579;SDS011;11456;47.030;15.396;2023-12-07T10:30:34;7.05;;;4.47;;
22579;SDS011;11456;47.030;15.396;2023-12-07T10:33:04;5.47;;;3.70;;
22579;SDS011;11456;47.030;15.396;2023-12-07T10:38:04;8.18;;;5.90;;
22579;SDS011;11456;47.030;15.396;2023-12-07T10:40:31;10.50;;;6.35;;
22579;SDS011;11456;47.030;15.396;2023-12-07T10:42:58;14.35;;;7.97;;
22579;SDS011;11456;47.030;15.396;2023-12-07T10:45:29;15.68;;;8.13;;
22579;SDS011;11456;47.030;15.396;2023-12-07T10:48:06;4.60;;;3.40;;
22579;SDS011;11456;47.030;15.396;2023-12-07T10:50:35;11.98;;;5.80;;
22579;SDS011;11456;47.030;15.396;2023-12-07T10:53:29;9.65;;;5.35;;
22579;SDS011;11456;47.030;15.396;2023-12-07T10:56:03;8.43;;;5.75;;
22579;SDS011;11456;47.030;15.396;2023-12-07T10:58:31;7.60;;;5.18;;
22579;SDS011;11456;47.030;15.396;2023-12-07T11:01:02;5.72;;;4.38;;
22579;SDS011;11456;47.030;15.396;2023-12-07T11:03:30;3.70;;;2.30;;
22579;SDS011;11456;47.030;15.396;2023-12-07T11:05:58;5.28;;;2.70;;
22579;SDS011;11456;47.030;15.396;2023-12-07T11:08:28;7.15;;;3.60;;
22579;SDS011;11456;47.030;15.396;2023-12-07T11:13:59;7.93;;;6.38;;
22579;SDS011;11456;47.030;15.396;2023-12-07T11:16:35;5.47;;;4.32;;
22579;SDS011;11456;47.030;15.396;2023-12-07T11:19:03;4.97;;;2.65;;
22579;SDS011;11456;47.030;15.396;2023-12-07T11:21:38;4.35;;;2.50;;
22579;SDS011;11456;47.030;15.396;2023-12-07T11:24:05;3.38;;;2.35;;
22579;SDS011;11456;47.030;15.396;2023-12-07T11:26:32;4.13;;;1.80;;
22579;SDS011;11456;47.030;15.396;2023-12-07T11:28:59;1.55;;;1.45;;
22579;SDS011;11456;47.030;15.396;2023-12-07T11:31:25;1.60;;;1.50;;
22579;SDS011;11456;47.030;15.396;2023-12-07T11:33:53;3.35;;;1.60;;
22579;SDS011;11456;47.030;15.396;2023-12-07T11:36:20;2.25;;;1.38;;
22579;SDS011;11456;47.030;15.396;2023-12-07T11:41:49;3.17;;;1.80;;
22579;SDS011;11456;47.030;15.396;2023-12-07T11:44:19;3.50;;;2.10;;
22579;SDS011;11456;47.030;15.396;2023-12-07T11:46:50;2.15;;;1.58;;
22579;SDS011;11456;47.030;15.396;2023-12-07T11:49:17;1.88;;;1.50;;
22579;SDS011;11456;47.030;15.396;2023-12-07T11:52:11;1.75;;;1.15;;
22579;SDS011;11456;47.030;15.396;2023-12-07T11:54:40;2.00;;;1.60;;
22579;SDS011;11456;47.030;15.396;2023-12-07T11:57:08;2.50;;;1.65;;
22579;SDS011;11456;47.030;15.396;2023-12-07T11:59:35;2.03;;;1.65;;
22579;SDS011;11456;47.030;15.396;2023-12-07T12:02:01;1.80;;;1.50;;
22579;SDS011;11456;47.030;15.396;2023-12-07T12:04:31;2.13;;;1.92;;
22579;SDS011;11456;47.030;15.396;2023-12-07T12:06:58;2.50;;;2.30;;
22579;SDS011;11456;47.030;15.396;2023-12-07T12:09:24;2.50;;;1.80;;
22579;SDS011;11456;47.030;15.396;2023-12-07T12:11:58;1.90;;;1.73;;
22579;SDS011;11456;47.030;15.396;2023-12-07T12:14:28;2.88;;;2.40;;
22579;SDS011;11456;47.030;15.396;2023-12-07T12:16:54;3.05;;;2.08;;
22579;SDS011;11456;47.030;15.396;2023-12-07T12:19:24;6.40;;;3.65;;
22579;SDS011;11456;47.030;15.396;2023-12-07T12:22:02;30.33;;;15.65;;
22579;SDS011;11456;47.030;15.396;2023-12-07T12:24:33;55.22;;;28.20;;
22579;SDS011;11456;47.030;15.396;2023-12-07T12:27:01;77.95;;;40.90;;
22579;SDS011;11456;47.030;15.396;2023-12-07T12:29:29;11.98;;;7.25;;
22579;SDS011;11456;47.030;15.396;2023-12-07T12:32:03;4.78;;;3.22;;
22579;SDS011;11456;47.030;15.396;2023-12-07T12:34:35;9.20;;;6.00;;
22579;SDS011;11456;47.030;15.396;2023-12-07T12:37:02;6.00;;;3.72;;
22579;SDS011;11456;47.030;15.396;2023-12-07T12:39:32;3.83;;;2.30;;
22579;SDS011;11456;47.030;15.396;2023-12-07T12:42:01;2.40;;;1.70;;
22579;SDS011;11456;47.030;15.396;2023-12-07T12:44:30;3.10;;;1.70;;
22579;SDS011;11456;47.030;15.396;2023-12-07T12:47:06;3.60;;;1.88;;
22579;SDS011;11456;47.030;15.396;2023-12-07T12:49:37;2.70;;;1.60;;
22579;SDS011;11456;47.030;15.396;2023-12-07T12:52:10;2.28;;;1.67;;
22579;SDS011;11456;47.030;15.396;2023-12-07T12:54:38;2.60;;;1.55;;
22579;SDS011;11456;47.030;15.396;2023-12-07T12:57:08;2.17;;;1.55;;
22579;SDS011;11456;47.030;15.396;2023-12-07T12:59:35;2.28;;;1.60;;
22579;SDS011;11456;47.030;15.396;2023-12-07T13:02:02;2.03;;;1.67;;
22579;SDS011;11456;47.030;15.396;2023-12-07T13:04:32;2.53;;;1.70;;
22579;SDS011;11456;47.030;15.396;2023-12-07T13:07:03;2.22;;;1.70;;
22579;SDS011;11456;47.030;15.396;2023-12-07T13:09:30;3.88;;;1.92;;
22579;SDS011;11456;47.030;15.396;2023-12-07T13:11:57;2.28;;;1.80;;
22579;SDS011;11456;47.030;15.396;2023-12-07T13:14:30;5.68;;;3.13;;
22579;SDS011;11456;47.030;15.396;2023-12-07T13:16:57;7.13;;;2.47;;
22579;SDS011;11456;47.030;15.396;2023-12-07T13:19:24;6.88;;;3.42;;
22579;SDS011;11456;47.030;15.396;2023-12-07T13:21:51;5.85;;;3.20;;
22579;SDS011;11456;47.030;15.396;2023-12-07T13:24:18;8.70;;;4.15;;
22579;SDS011;11456;47.030;15.396;2023-12-07T13:26:45;4.70;;;3.00;;
22579;SDS011;11456;47.030;15.396;2023-12-07T13:29:13;3.42;;;2.30;;
22579;SDS011;11456;47.030;15.396;2023-12-07T13:31:54;5.55;;;3.20;;
22579;SDS011;11456;47.030;15.396;2023-12-07T13:34:20;7.32;;;3.40;;
22579;SDS011;11456;47.030;15.396;2023-12-07T13:36:49;5.82;;;3.22;;
22579;SDS011;11456;47.030;15.396;2023-12-07T13:39:16;5.07;;;2.55;;
22579;SDS011;11456;47.030;15.396;2023-12-07T13:41:56;2.30;;;1.83;;
22579;SDS011;11456;47.030;15.396;2023-12-07T13:44:23;3.67;;;2.13;;
22579;SDS011;11456;47.030;15.396;2023-12-07T13:46:54;4.13;;;2.78;;
22579;SDS011;11456;47.030;15.396;2023-12-07T13:49:23;5.20;;;2.15;;
22579;SDS011;11456;47.030;15.396;2023-12-07T13:51:59;4.50;;;2.40;;
22579;SDS011;11456;47.030;15.396;2023-12-07T13:54:33;9.90;;;4.90;;
22579;SDS011;11456;47.030;15.396;2023-12-07T13:57:19;5.30;;;2.40;;
22579;SDS011;11456;47.030;15.396;2023-12-07T13:59:52;7.10;;;3.95;;
22579;SDS011;11456;47.030;15.396;2023-12-07T14:02:19;11.98;;;5.40;;
22579;SDS011;11456;47.030;15.396;2023-12-07T14:04:47;10.73;;;5.15;;
22579;SDS011;11456;47.030;15.396;2023-12-07T14:07:17;5.25;;;3.40;;
22579;SDS011;11456;47.030;15.396;2023-12-07T14:09:46;9.10;;;4.65;;
22579;SDS011;11456;47.030;15.396;2023-12-07T14:12:24;4.40;;;2.30;;
22579;SDS011;11456;47.030;15.396;2023-12-07T14:14:52;5.75;;;4.15;;
22579;SDS011;11456;47.030;15.396;2023-12-07T14:17:21;6.90;;;2.85;;
22579;SDS011;11456;47.030;15.396;2023-12-07T14:20:06;7.35;;;2.50;;
22579;SDS011;11456;47.030;15.396;2023-12-07T14:22:54;6.43;;;2.40;;
22579;SDS011;11456;47.030;15.396;2023-12-07T14:25:22;8.95;;;2.95;;
22579;SDS011;11456;47.030;15.396;2023-12-07T14:27:50;4.28;;;2.58;;
22579;SDS011;11456;47.030;15.396;2023-12-07T14:30:16;6.50;;;3.45;;
22579;SDS011;11456;47.030;15.396;2023-12-07T14:32:43;3.58;;;2.30;;